createdAt,value
2022-10-19T00:01:21.771Z,8.20
2022-10-19T00:03:53.013Z,8.10
2022-10-19T00:06:31.382Z,8.00
2022-10-19T00:09:08.882Z,8.00
2022-10-19T00:11:39.940Z,8.10
2022-10-19T00:14:08.888Z,8.00
2022-10-19T00:16:38.211Z,8.00
2022-10-19T00:19:11.619Z,8.00
2022-10-19T00:21:39.425Z,7.90
2022-10-19T00:24:08.196Z,7.80
2022-10-19T00:26:35.263Z,7.90
2022-10-19T00:29:03.232Z,7.90
2022-10-19T00:31:30.062Z,7.90
2022-10-19T00:33:58.681Z,7.80
2022-10-19T00:36:36.047Z,7.90
2022-10-19T00:39:06.041Z,7.80
2022-10-19T00:41:36.079Z,7.70
2022-10-19T00:44:30.321Z,7.80
2022-10-19T00:47:05.048Z,7.70
2022-10-19T00:49:37.375Z,7.80
2022-10-19T00:52:15.852Z,7.70
2022-10-19T00:54:46.962Z,7.70
2022-10-19T00:57:15.137Z,7.70
2022-10-19T00:59:45.513Z,7.70
2022-10-19T01:02:12.972Z,7.70
2022-10-19T01:04:47.679Z,7.60
2022-10-19T01:07:14.636Z,7.60
2022-10-19T01:09:41.385Z,7.70
2022-10-19T01:12:35.028Z,7.60
2022-10-19T01:15:31.051Z,7.60
2022-10-19T01:18:20.799Z,7.60
2022-10-19T01:21:20.749Z,7.50
2022-10-19T01:24:17.821Z,7.50
2022-10-19T01:27:05.139Z,7.40
2022-10-19T01:30:01.759Z,7.40
2022-10-19T01:32:58.516Z,7.30
2022-10-19T01:36:08.414Z,7.40
2022-10-19T01:38:51.523Z,7.40
2022-10-19T01:41:30.267Z,7.30
2022-10-19T01:44:23.132Z,7.20
2022-10-19T01:47:06.149Z,7.20
2022-10-19T01:49:49.044Z,7.10
2022-10-19T01:52:20.827Z,7.10
2022-10-19T01:54:57.496Z,7.00
2022-10-19T01:57:32.903Z,7.00
2022-10-19T02:00:07.184Z,7.00
2022-10-19T02:02:45.109Z,7.00
2022-10-19T02:05:14.006Z,7.00
2022-10-19T02:07:46.250Z,7.00
2022-10-19T02:12:45.655Z,7.00
2022-10-19T02:15:19.479Z,6.90
2022-10-19T02:17:50.875Z,6.90
2022-10-19T02:20:19.106Z,6.80
2022-10-19T02:22:45.940Z,6.80
2022-10-19T02:25:13.714Z,6.80
2022-10-19T02:27:42.118Z,6.80
2022-10-19T02:30:15.550Z,6.70
2022-10-19T02:32:44.233Z,6.70
2022-10-19T02:35:14.552Z,6.60
2022-10-19T02:37:41.902Z,6.60
2022-10-19T02:40:10.160Z,6.60
2022-10-19T02:42:56.136Z,6.60
2022-10-19T02:45:30.844Z,6.50
2022-10-19T02:48:08.393Z,6.50
2022-10-19T02:50:35.951Z,6.50
2022-10-19T02:53:03.101Z,6.50
2022-10-19T02:55:31.299Z,6.50
2022-10-19T02:57:58.187Z,6.40
2022-10-19T03:00:25.144Z,6.50
2022-10-19T03:02:51.931Z,6.40
2022-10-19T03:05:18.656Z,6.30
2022-10-19T03:07:45.419Z,6.30
2022-10-19T03:10:12.379Z,6.30
2022-10-19T03:12:39.303Z,6.30
2022-10-19T03:15:06.963Z,6.30
2022-10-19T03:17:34.132Z,6.30
2022-10-19T03:20:00.969Z,6.30
2022-10-19T03:22:27.668Z,6.30
2022-10-19T03:24:54.421Z,6.30
2022-10-19T03:27:21.195Z,6.20
2022-10-19T03:29:47.906Z,6.20
2022-10-19T03:32:14.687Z,6.20
2022-10-19T03:34:41.575Z,6.20
2022-10-19T03:37:08.571Z,6.10
2022-10-19T03:39:35.630Z,6.20
2022-10-19T03:42:02.652Z,6.10
2022-10-19T03:44:29.395Z,6.00
2022-10-19T03:46:56.112Z,6.10
2022-10-19T03:49:22.828Z,6.10
2022-10-19T03:51:49.603Z,6.10
2022-10-19T03:54:17.657Z,6.10
2022-10-19T03:56:44.588Z,6.10
2022-10-19T03:59:14.664Z,6.10
2022-10-19T04:01:45.035Z,6.10
2022-10-19T04:04:18.447Z,6.10
2022-10-19T04:06:49.951Z,6.10
2022-10-19T04:09:20.386Z,6.10
2022-10-19T04:11:48.177Z,6.10
2022-10-19T04:14:26.830Z,6.00
2022-10-19T04:17:01.484Z,5.90
2022-10-19T04:19:28.405Z,5.90
2022-10-19T04:21:55.296Z,5.90
2022-10-19T04:24:22.173Z,5.90
2022-10-19T04:26:53.204Z,5.90
2022-10-19T04:29:25.057Z,5.90
2022-10-19T04:31:54.778Z,5.90
2022-10-19T04:34:21.566Z,5.90
2022-10-19T04:36:48.372Z,5.80
2022-10-19T04:39:15.284Z,5.80
2022-10-19T04:41:42.014Z,5.80
2022-10-19T04:44:10.026Z,5.80
2022-10-19T04:46:37.401Z,5.80
2022-10-19T04:49:06.078Z,5.80
2022-10-19T04:51:32.971Z,5.80
2022-10-19T04:54:00.080Z,5.60
2022-10-19T04:56:27.821Z,5.60
2022-10-19T04:58:58.700Z,5.70
2022-10-19T05:01:28.004Z,5.70
2022-10-19T05:06:31.932Z,5.70
2022-10-19T05:08:59.842Z,5.80
2022-10-19T05:11:27.231Z,5.80
2022-10-19T05:13:54.224Z,5.80
2022-10-19T05:16:23.552Z,5.70
2022-10-19T05:18:56.072Z,5.70
2022-10-19T05:21:22.959Z,5.70
2022-10-19T05:23:52.722Z,5.70
2022-10-19T05:26:22.655Z,5.60
2022-10-19T05:28:56.239Z,5.60
2022-10-19T05:31:26.993Z,5.60
2022-10-19T05:33:56.150Z,5.60
2022-10-19T05:36:34.773Z,5.60
2022-10-19T05:39:07.171Z,5.60
2022-10-19T05:41:34.745Z,5.60
2022-10-19T05:44:03.699Z,5.60
2022-10-19T05:46:32.318Z,5.60
2022-10-19T05:49:00.247Z,5.60
2022-10-19T05:51:28.216Z,5.60
2022-10-19T05:53:56.434Z,5.50
2022-10-19T05:56:29.497Z,5.50
2022-10-19T05:58:59.596Z,5.50
2022-10-19T06:01:28.491Z,5.50
2022-10-19T06:03:58.260Z,5.50
2022-10-19T06:06:27.279Z,5.50
2022-10-19T06:08:56.956Z,5.60
2022-10-19T06:11:31.342Z,5.50
2022-10-19T06:14:00.733Z,5.50
2022-10-19T06:16:29.908Z,5.60
2022-10-19T06:18:58.157Z,5.60
2022-10-19T06:21:29.774Z,5.60
2022-10-19T06:24:00.763Z,5.60
2022-10-19T06:26:29.166Z,5.60
2022-10-19T06:29:00.449Z,5.60
2022-10-19T06:31:33.426Z,5.60
2022-10-19T06:34:00.959Z,5.50
2022-10-19T06:36:30.984Z,5.50
2022-10-19T06:38:59.885Z,5.50
2022-10-19T06:41:27.227Z,5.70
2022-10-19T06:43:56.138Z,5.70
2022-10-19T06:46:26.114Z,5.80
2022-10-19T06:48:57.903Z,5.90
2022-10-19T06:51:27.702Z,6.10
2022-10-19T06:53:57.119Z,6.00
2022-10-19T06:56:25.780Z,6.00
2022-10-19T06:58:53.748Z,6.10
2022-10-19T07:01:21.570Z,6.10
2022-10-19T07:03:50.938Z,6.20
2022-10-19T07:06:18.748Z,6.20
2022-10-19T07:08:46.088Z,6.30
2022-10-19T07:11:17.740Z,6.30
2022-10-19T07:13:44.604Z,6.40
2022-10-19T07:16:19.557Z,6.70
2022-10-19T07:18:51.438Z,6.70
2022-10-19T07:21:21.031Z,6.70
2022-10-19T07:23:48.823Z,6.70
2022-10-19T07:26:23.806Z,6.70
2022-10-19T07:28:51.449Z,6.90
2022-10-19T07:31:22.201Z,7.00
2022-10-19T07:33:58.162Z,7.00
2022-10-19T07:36:26.304Z,7.20
2022-10-19T07:38:53.440Z,7.20
2022-10-19T07:41:23.952Z,7.20
2022-10-19T07:43:52.260Z,7.30
2022-10-19T07:46:26.177Z,7.50
2022-10-19T07:48:53.726Z,7.60
2022-10-19T07:51:21.342Z,7.80
2022-10-19T07:53:48.194Z,7.90
2022-10-19T07:56:19.053Z,8.10
2022-10-19T07:58:47.400Z,8.10
2022-10-19T08:01:21.384Z,8.20
2022-10-19T08:06:37.364Z,8.20
2022-10-19T08:09:05.807Z,8.40
2022-10-19T08:11:35.736Z,8.50
2022-10-19T08:14:03.887Z,8.60
2022-10-19T08:16:41.624Z,8.80
2022-10-19T08:19:11.853Z,8.80
2022-10-19T08:21:42.486Z,9.00
2022-10-19T08:24:09.983Z,9.00
2022-10-19T08:26:39.035Z,9.10
2022-10-19T08:29:10.774Z,9.20
2022-10-19T08:31:38.302Z,9.40
2022-10-19T08:34:05.985Z,9.50
2022-10-19T08:36:35.409Z,9.60
2022-10-19T08:39:08.192Z,9.60
2022-10-19T08:41:40.820Z,9.80
2022-10-19T08:45:02.080Z,9.80
2022-10-19T08:47:34.745Z,10.00
2022-10-19T08:50:03.543Z,10.20
2022-10-19T08:52:35.224Z,10.20
2022-10-19T08:55:15.202Z,10.40
2022-10-19T08:58:24.393Z,10.50
2022-10-19T09:01:19.576Z,10.60
2022-10-19T09:04:08.105Z,10.70
2022-10-19T09:07:03.861Z,10.70
2022-10-19T09:09:33.355Z,10.90
2022-10-19T09:12:07.397Z,10.90
2022-10-19T09:14:48.949Z,11.00
2022-10-19T09:17:19.712Z,11.20
2022-10-19T09:19:46.528Z,11.20
2022-10-19T09:22:34.768Z,11.30
2022-10-19T09:25:21.265Z,11.50
2022-10-19T09:27:58.837Z,11.50
2022-10-19T09:30:27.927Z,11.60
2022-10-19T09:33:02.684Z,11.60
2022-10-19T09:35:38.708Z,11.70
2022-10-19T09:38:07.667Z,11.80
2022-10-19T09:40:35.597Z,11.90
2022-10-19T09:43:20.619Z,12.10
2022-10-19T09:46:20.641Z,12.20
2022-10-19T09:48:52.953Z,12.20
2022-10-19T09:51:20.983Z,12.20
2022-10-19T09:53:55.129Z,12.20
2022-10-19T09:56:25.804Z,12.30
2022-10-19T09:58:58.846Z,12.20
2022-10-19T10:01:43.834Z,12.20
2022-10-19T10:04:17.656Z,12.30
2022-10-19T10:06:48.465Z,12.30
2022-10-19T10:09:25.818Z,12.50
2022-10-19T10:11:57.119Z,12.50
2022-10-19T10:14:41.680Z,12.50
2022-10-19T10:17:17.850Z,12.70
2022-10-19T10:19:58.181Z,12.70
2022-10-19T10:22:31.503Z,12.70
2022-10-19T10:24:58.421Z,12.60
2022-10-19T10:27:39.357Z,12.60
2022-10-19T10:30:15.637Z,12.70
2022-10-19T10:32:54.779Z,12.70
2022-10-19T10:35:28.938Z,12.80
2022-10-19T10:38:13.164Z,12.80
2022-10-19T10:40:40.884Z,12.80
2022-10-19T10:43:16.626Z,12.80
2022-10-19T10:45:49.427Z,13.00
2022-10-19T10:48:31.786Z,13.00
2022-10-19T10:51:01.687Z,13.00
2022-10-19T10:53:31.876Z,13.00
2022-10-19T10:55:58.687Z,13.10
2022-10-19T10:58:55.813Z,13.10
2022-10-19T11:01:32.736Z,13.20
2022-10-19T11:04:13.898Z,13.20
2022-10-19T11:06:58.245Z,13.10
2022-10-19T11:09:36.352Z,13.20
2022-10-19T11:12:10.190Z,13.20
2022-10-19T11:15:08.629Z,13.30
2022-10-19T11:17:42.781Z,13.30
2022-10-19T11:20:16.272Z,13.50
2022-10-19T11:23:24.770Z,13.50
2022-10-19T11:26:26.228Z,13.60
2022-10-19T11:29:45.583Z,13.60
2022-10-19T11:33:03.750Z,13.60
2022-10-19T11:35:49.649Z,13.70
2022-10-19T11:39:06.871Z,13.70
2022-10-19T11:42:02.329Z,13.70
2022-10-19T11:44:51.671Z,13.60
2022-10-19T11:47:29.771Z,13.70
2022-10-19T11:50:13.646Z,13.80
2022-10-19T11:52:59.236Z,13.80
2022-10-19T11:55:58.958Z,13.80
2022-10-19T11:58:35.393Z,13.80
2022-10-19T12:01:28.738Z,13.80
2022-10-19T12:04:29.153Z,13.90
2022-10-19T12:07:35.714Z,13.90
2022-10-19T12:10:33.631Z,13.80
2022-10-19T12:13:10.193Z,13.90
2022-10-19T12:15:44.451Z,13.80
2022-10-19T12:18:38.634Z,14.00
2022-10-19T12:21:17.989Z,14.10
2022-10-19T12:23:46.853Z,14.10
2022-10-19T12:26:20.965Z,14.10
2022-10-19T12:29:06.368Z,14.10
2022-10-19T12:31:35.920Z,14.10
2022-10-19T12:34:44.451Z,14.10
2022-10-19T12:37:29.121Z,14.10
2022-10-19T12:40:12.511Z,14.20
2022-10-19T12:43:19.376Z,14.40
2022-10-19T12:46:21.809Z,14.50
2022-10-19T12:49:26.565Z,14.40
2022-10-19T12:51:56.139Z,14.10
2022-10-19T12:54:28.111Z,14.10
2022-10-19T12:56:58.697Z,14.30
2022-10-19T12:59:36.293Z,14.40
2022-10-19T13:02:22.368Z,14.40
2022-10-19T13:04:55.539Z,14.40
2022-10-19T13:07:25.575Z,14.40
2022-10-19T13:10:02.453Z,14.40
2022-10-19T13:12:43.610Z,14.40
2022-10-19T13:15:36.227Z,14.20
2022-10-19T13:18:55.931Z,14.30
2022-10-19T13:21:58.342Z,14.30
2022-10-19T13:24:25.095Z,14.40
2022-10-19T13:27:04.121Z,14.30
2022-10-19T13:29:44.601Z,14.20
2022-10-19T13:32:38.192Z,14.20
2022-10-19T13:35:33.865Z,14.30
2022-10-19T13:38:09.512Z,14.20
2022-10-19T13:40:47.431Z,14.30
2022-10-19T13:43:28.465Z,14.30
2022-10-19T13:46:14.492Z,14.20
2022-10-19T13:49:04.903Z,14.30
2022-10-19T13:51:37.480Z,14.30
2022-10-19T13:54:48.769Z,14.20
2022-10-19T13:57:25.795Z,14.20
2022-10-19T14:00:10.997Z,14.30
2022-10-19T14:03:26.429Z,14.30
2022-10-19T14:06:13.079Z,14.40
2022-10-19T14:09:33.867Z,14.40
2022-10-19T14:12:31.560Z,14.40
2022-10-19T14:14:59.685Z,14.40
2022-10-19T14:17:34.086Z,14.40
2022-10-19T14:20:01.668Z,14.40
2022-10-19T14:22:35.848Z,14.40
2022-10-19T14:25:20.521Z,14.40
2022-10-19T14:27:54.268Z,14.50
2022-10-19T14:30:27.371Z,14.60
2022-10-19T14:32:59.418Z,14.60
2022-10-19T14:35:35.369Z,14.60
2022-10-19T14:38:06.124Z,14.60
2022-10-19T14:40:39.485Z,14.40
2022-10-19T14:43:34.004Z,14.40
2022-10-19T14:46:16.624Z,14.40
2022-10-19T14:48:49.409Z,14.40
2022-10-19T14:51:34.478Z,14.30
2022-10-19T14:54:20.062Z,14.30
2022-10-19T14:57:03.749Z,14.40
2022-10-19T14:59:46.156Z,14.40
2022-10-19T15:02:31.273Z,14.30
2022-10-19T15:05:03.019Z,14.30
2022-10-19T15:07:38.857Z,14.30
2022-10-19T15:10:18.743Z,14.20
2022-10-19T15:12:46.080Z,14.20
2022-10-19T15:15:30.259Z,14.20
2022-10-19T15:18:06.682Z,14.20
2022-10-19T15:20:49.205Z,14.20
2022-10-19T15:23:37.953Z,14.20
2022-10-19T15:29:06.469Z,14.10
2022-10-19T15:31:33.761Z,14.00
2022-10-19T15:34:03.443Z,14.00
2022-10-19T15:36:32.672Z,13.90
2022-10-19T15:39:18.550Z,13.90
2022-10-19T15:41:52.735Z,13.90
2022-10-19T15:44:43.857Z,13.90
2022-10-19T15:47:22.668Z,13.80
2022-10-19T15:50:01.198Z,13.70
2022-10-19T15:52:33.076Z,13.60
2022-10-19T15:55:01.531Z,13.60
2022-10-19T15:57:38.546Z,13.50
2022-10-19T16:00:16.697Z,13.40
2022-10-19T16:02:43.660Z,13.40
2022-10-19T16:07:40.847Z,13.30
2022-10-19T16:10:15.510Z,13.30
2022-10-19T16:12:42.535Z,13.20
2022-10-19T16:15:22.023Z,13.10
2022-10-19T16:17:52.975Z,13.00
2022-10-19T16:20:21.084Z,13.00
2022-10-19T16:22:48.684Z,13.00
2022-10-19T16:25:16.343Z,13.00
2022-10-19T16:27:43.392Z,12.90
2022-10-19T16:30:11.394Z,12.90
2022-10-19T16:32:39.833Z,12.80
2022-10-19T16:35:08.611Z,12.70
2022-10-19T16:37:35.754Z,12.70
2022-10-19T16:40:04.267Z,12.70
2022-10-19T16:42:31.585Z,12.60
2022-10-19T16:44:58.356Z,12.60
2022-10-19T16:47:25.219Z,12.60
2022-10-19T16:50:03.900Z,12.50
2022-10-19T16:52:32.795Z,12.50
2022-10-19T16:55:00.630Z,12.40
2022-10-19T16:57:27.436Z,12.40
2022-10-19T16:59:54.527Z,12.50
2022-10-19T17:02:22.187Z,12.40
2022-10-19T17:04:49.185Z,12.30
2022-10-19T17:07:16.568Z,12.30
2022-10-19T17:09:43.507Z,12.30
2022-10-19T17:12:11.304Z,12.20
2022-10-19T17:14:41.563Z,12.20
2022-10-19T17:17:10.339Z,12.10
2022-10-19T17:19:38.353Z,12.10
2022-10-19T17:22:05.484Z,12.10
2022-10-19T17:24:32.428Z,12.10
2022-10-19T17:27:03.114Z,12.10
2022-10-19T17:29:30.539Z,12.10
2022-10-19T17:31:58.089Z,12.00
2022-10-19T17:34:24.959Z,12.00
2022-10-19T17:36:51.703Z,12.00
2022-10-19T17:39:27.195Z,12.00
2022-10-19T17:42:01.319Z,12.00
2022-10-19T17:44:30.390Z,11.90
2022-10-19T17:46:57.475Z,11.90
2022-10-19T17:49:24.474Z,12.00
2022-10-19T17:51:53.531Z,11.90
2022-10-19T17:54:20.587Z,11.90
2022-10-19T17:56:47.426Z,11.90
2022-10-19T17:59:14.445Z,11.90
2022-10-19T18:01:41.641Z,11.90
2022-10-19T18:04:08.411Z,11.90
2022-10-19T18:06:38.373Z,11.90
2022-10-19T18:09:08.401Z,11.90
2022-10-19T18:11:43.340Z,11.90
2022-10-19T18:14:12.596Z,11.80
2022-10-19T18:16:47.047Z,11.80
2022-10-19T18:19:16.520Z,11.80
2022-10-19T18:21:46.912Z,11.80
2022-10-19T18:24:19.650Z,11.70
2022-10-19T18:26:49.364Z,11.70
2022-10-19T18:29:21.337Z,11.70
2022-10-19T18:31:51.412Z,11.70
2022-10-19T18:34:23.818Z,11.60
2022-10-19T18:36:51.915Z,11.60
2022-10-19T18:39:19.029Z,11.60
2022-10-19T18:41:45.954Z,11.50
2022-10-19T18:44:13.842Z,11.50
2022-10-19T18:46:40.938Z,11.50
2022-10-19T18:49:11.023Z,11.50
2022-10-19T18:51:38.062Z,11.50
2022-10-19T18:54:05.383Z,11.40
2022-10-19T18:56:36.477Z,11.40
2022-10-19T18:59:04.812Z,11.40
2022-10-19T19:01:31.665Z,11.40
2022-10-19T19:04:08.153Z,11.30
2022-10-19T19:06:37.331Z,11.30
2022-10-19T19:09:08.792Z,11.20
2022-10-19T19:11:38.151Z,11.30
2022-10-19T19:14:13.627Z,11.20
2022-10-19T19:16:42.789Z,11.30
2022-10-19T19:19:13.203Z,11.10
2022-10-19T19:21:43.679Z,11.20
2022-10-19T19:24:17.323Z,11.20
2022-10-19T19:26:50.082Z,11.10
2022-10-19T19:29:18.664Z,11.00
2022-10-19T19:31:45.759Z,11.10
2022-10-19T19:34:12.699Z,11.10
2022-10-19T19:36:47.969Z,11.10
2022-10-19T19:39:19.236Z,11.00
2022-10-19T19:41:47.337Z,11.00
2022-10-19T19:44:14.394Z,11.00
2022-10-19T19:46:41.222Z,10.90
2022-10-19T19:49:08.340Z,10.90
2022-10-19T19:51:35.306Z,10.90
2022-10-19T19:54:02.206Z,10.80
2022-10-19T19:56:29.476Z,10.80
2022-10-19T19:58:59.502Z,10.80
2022-10-19T20:01:27.047Z,10.80
2022-10-19T20:03:54.068Z,10.80
2022-10-19T20:06:24.994Z,10.80
2022-10-19T20:08:54.258Z,10.70
2022-10-19T20:11:22.068Z,10.60
2022-10-19T20:13:49.374Z,10.70
2022-10-19T20:16:22.740Z,10.60
2022-10-19T20:19:00.300Z,10.60
2022-10-19T20:21:27.666Z,10.70
2022-10-19T20:23:54.481Z,10.60
2022-10-19T20:26:24.241Z,10.60
2022-10-19T20:28:52.556Z,10.50
2022-10-19T20:31:20.273Z,10.60
2022-10-19T20:33:48.062Z,10.50
2022-10-19T20:36:24.558Z,10.50
2022-10-19T20:38:54.968Z,10.40
2022-10-19T20:41:24.164Z,10.50
2022-10-19T20:43:51.785Z,10.40
2022-10-19T20:46:22.170Z,10.40
2022-10-19T20:48:50.444Z,10.40
2022-10-19T20:51:31.994Z,10.40
2022-10-19T20:54:01.643Z,10.30
2022-10-19T20:56:32.127Z,10.30
2022-10-19T20:59:21.988Z,10.30
2022-10-19T21:01:51.770Z,10.30
2022-10-19T21:04:19.239Z,10.30
2022-10-19T21:06:49.348Z,10.20
2022-10-19T21:09:20.237Z,10.20
2022-10-19T21:11:50.368Z,10.30
2022-10-19T21:14:27.137Z,10.20
2022-10-19T21:16:57.993Z,10.20
2022-10-19T21:19:28.264Z,10.20
2022-10-19T21:22:01.878Z,10.20
2022-10-19T21:24:33.373Z,10.10
2022-10-19T21:27:03.650Z,10.10
2022-10-19T21:29:30.816Z,10.10
2022-10-19T21:31:57.547Z,10.10
2022-10-19T21:34:27.876Z,10.10
2022-10-19T21:36:55.380Z,10.00
2022-10-19T21:39:22.756Z,10.10
2022-10-19T21:41:49.974Z,10.00
2022-10-19T21:44:18.649Z,10.00
2022-10-19T21:46:47.949Z,10.00
2022-10-19T21:49:15.535Z,10.00
2022-10-19T21:51:49.701Z,9.90
2022-10-19T21:54:19.743Z,9.90
2022-10-19T21:56:47.295Z,10.00
2022-10-19T21:59:15.413Z,9.90
2022-10-19T22:01:42.551Z,9.80
2022-10-19T22:04:13.786Z,9.90
2022-10-19T22:06:42.261Z,9.80
2022-10-19T22:09:16.941Z,9.80
2022-10-19T22:11:44.548Z,9.80
2022-10-19T22:14:13.765Z,9.80
2022-10-19T22:16:41.838Z,9.80
2022-10-19T22:19:09.859Z,9.80
2022-10-19T22:24:10.087Z,9.70
2022-10-19T22:26:42.689Z,9.70
2022-10-19T22:29:09.552Z,9.60
2022-10-19T22:31:37.206Z,9.70
2022-10-19T22:34:14.855Z,9.60
2022-10-19T22:36:42.393Z,9.60
2022-10-19T22:39:09.808Z,9.60
2022-10-19T22:42:04.940Z,9.60
2022-10-19T22:44:31.892Z,9.60
2022-10-19T22:46:59.032Z,9.60
2022-10-19T22:49:25.809Z,9.60
2022-10-19T22:51:52.532Z,9.60
2022-10-19T22:54:19.305Z,9.60
2022-10-19T22:56:46.097Z,9.60
2022-10-19T22:59:12.824Z,9.60
2022-10-19T23:01:39.756Z,9.60
2022-10-19T23:04:06.948Z,9.60
2022-10-19T23:06:33.720Z,9.60
2022-10-19T23:09:00.670Z,9.60
2022-10-19T23:11:27.462Z,9.60
2022-10-19T23:13:54.252Z,9.60
2022-10-19T23:16:21.058Z,9.60
2022-10-19T23:18:48.169Z,9.50
2022-10-19T23:21:15.652Z,9.60
2022-10-19T23:23:42.952Z,9.60
2022-10-19T23:26:17.709Z,9.60
2022-10-19T23:28:48.666Z,9.50
2022-10-19T23:31:20.951Z,9.40
2022-10-19T23:33:47.687Z,9.40
2022-10-19T23:36:17.065Z,9.40
2022-10-19T23:38:48.504Z,9.50
2022-10-19T23:41:16.406Z,9.40
2022-10-19T23:43:44.086Z,9.40
2022-10-19T23:46:11.945Z,9.40
2022-10-19T23:48:39.843Z,9.40
2022-10-19T23:51:10.872Z,9.30
2022-10-19T23:53:41.760Z,9.30
2022-10-19T23:56:13.530Z,9.40
2022-10-19T23:58:40.656Z,9.40
